sensor_id;sensor_type;location;lat;lon;timestamp;P1;durP1;ratioP1;P2;durP2;ratioP2
32872;SDS011;19224;52.462;16.898;2023-02-04T00:00:22;12.40;;;7.47;;
32872;SDS011;19224;52.462;16.898;2023-02-04T00:02:54;9.63;;;7.10;;
32872;SDS011;19224;52.462;16.898;2023-02-04T00:08:15;9.37;;;6.37;;
32872;SDS011;19224;52.462;16.898;2023-02-04T00:10:46;11.00;;;7.40;;
32872;SDS011;19224;52.462;16.898;2023-02-04T00:13:18;10.27;;;6.40;;
32872;SDS011;19224;52.462;16.898;2023-02-04T00:18:37;8.67;;;6.10;;
32872;SDS011;19224;52.462;16.898;2023-02-04T00:21:08;8.57;;;5.43;;
32872;SDS011;19224;52.462;16.898;2023-02-04T00:23:38;9.97;;;5.77;;
32872;SDS011;19224;52.462;16.898;2023-02-04T00:26:09;9.03;;;6.50;;
32872;SDS011;19224;52.462;16.898;2023-02-04T00:28:39;8.73;;;5.20;;
32872;SDS011;19224;52.462;16.898;2023-02-04T00:31:10;7.77;;;4.93;;
32872;SDS011;19224;52.462;16.898;2023-02-04T00:33:40;6.90;;;4.47;;
32872;SDS011;19224;52.462;16.898;2023-02-04T00:36:10;6.27;;;4.93;;
32872;SDS011;19224;52.462;16.898;2023-02-04T00:38:44;6.40;;;4.50;;
32872;SDS011;19224;52.462;16.898;2023-02-04T00:41:16;6.40;;;4.07;;
32872;SDS011;19224;52.462;16.898;2023-02-04T00:43:48;7.23;;;4.20;;
32872;SDS011;19224;52.462;16.898;2023-02-04T00:46:22;6.43;;;4.00;;
32872;SDS011;19224;52.462;16.898;2023-02-04T00:48:53;6.60;;;3.80;;
32872;SDS011;19224;52.462;16.898;2023-02-04T00:51:23;5.30;;;3.33;;
32872;SDS011;19224;52.462;16.898;2023-02-04T00:53:53;6.70;;;4.10;;
32872;SDS011;19224;52.462;16.898;2023-02-04T00:56:25;5.13;;;3.90;;
32872;SDS011;19224;52.462;16.898;2023-02-04T00:58:59;7.27;;;3.10;;
32872;SDS011;19224;52.462;16.898;2023-02-04T01:01:29;5.30;;;3.53;;
32872;SDS011;19224;52.462;16.898;2023-02-04T01:04:00;4.77;;;2.80;;
32872;SDS011;19224;52.462;16.898;2023-02-04T01:06:30;3.57;;;2.53;;
32872;SDS011;19224;52.462;16.898;2023-02-04T01:09:01;4.77;;;2.93;;
32872;SDS011;19224;52.462;16.898;2023-02-04T01:11:33;3.87;;;2.63;;
32872;SDS011;19224;52.462;16.898;2023-02-04T01:14:04;3.20;;;2.40;;
32872;SDS011;19224;52.462;16.898;2023-02-04T01:16:34;4.93;;;3.20;;
32872;SDS011;19224;52.462;16.898;2023-02-04T01:19:05;3.40;;;2.50;;
32872;SDS011;19224;52.462;16.898;2023-02-04T01:21:37;5.50;;;3.23;;
32872;SDS011;19224;52.462;16.898;2023-02-04T01:24:09;5.80;;;2.90;;
32872;SDS011;19224;52.462;16.898;2023-02-04T01:26:39;4.10;;;2.50;;
32872;SDS011;19224;52.462;16.898;2023-02-04T01:29:10;3.63;;;2.13;;
32872;SDS011;19224;52.462;16.898;2023-02-04T01:31:40;2.60;;;2.20;;
32872;SDS011;19224;52.462;16.898;2023-02-04T01:34:10;5.90;;;3.20;;
32872;SDS011;19224;52.462;16.898;2023-02-04T01:36:43;6.00;;;2.90;;
32872;SDS011;19224;52.462;16.898;2023-02-04T01:39:14;5.17;;;2.70;;
32872;SDS011;19224;52.462;16.898;2023-02-04T01:41:44;5.43;;;2.83;;
32872;SDS011;19224;52.462;16.898;2023-02-04T01:44:15;5.10;;;3.00;;
32872;SDS011;19224;52.462;16.898;2023-02-04T01:46:45;3.43;;;2.27;;
32872;SDS011;19224;52.462;16.898;2023-02-04T01:49:16;3.70;;;2.63;;
32872;SDS011;19224;52.462;16.898;2023-02-04T01:51:46;4.10;;;2.80;;
32872;SDS011;19224;52.462;16.898;2023-02-04T01:54:17;4.27;;;2.90;;
32872;SDS011;19224;52.462;16.898;2023-02-04T01:56:49;7.53;;;3.53;;
32872;SDS011;19224;52.462;16.898;2023-02-04T01:59:21;4.63;;;2.87;;
32872;SDS011;19224;52.462;16.898;2023-02-04T02:01:52;6.47;;;3.30;;
32872;SDS011;19224;52.462;16.898;2023-02-04T02:04:27;6.50;;;3.60;;
32872;SDS011;19224;52.462;16.898;2023-02-04T02:07:00;7.27;;;3.40;;
32872;SDS011;19224;52.462;16.898;2023-02-04T02:09:32;7.30;;;3.60;;
32872;SDS011;19224;52.462;16.898;2023-02-04T02:12:04;8.33;;;3.80;;
32872;SDS011;19224;52.462;16.898;2023-02-04T02:14:35;7.80;;;4.17;;
32872;SDS011;19224;52.462;16.898;2023-02-04T02:17:06;8.07;;;4.90;;
32872;SDS011;19224;52.462;16.898;2023-02-04T02:19:36;8.97;;;4.73;;
32872;SDS011;19224;52.462;16.898;2023-02-04T02:22:16;7.57;;;5.37;;
32872;SDS011;19224;52.462;16.898;2023-02-04T02:25:10;9.70;;;5.43;;
32872;SDS011;19224;52.462;16.898;2023-02-04T02:27:42;9.40;;;4.93;;
32872;SDS011;19224;52.462;16.898;2023-02-04T02:30:13;10.10;;;5.97;;
32872;SDS011;19224;52.462;16.898;2023-02-04T02:32:47;9.57;;;5.73;;
32872;SDS011;19224;52.462;16.898;2023-02-04T02:35:20;8.50;;;5.30;;
32872;SDS011;19224;52.462;16.898;2023-02-04T02:37:51;12.23;;;5.40;;
32872;SDS011;19224;52.462;16.898;2023-02-04T02:40:21;10.03;;;5.63;;
32872;SDS011;19224;52.462;16.898;2023-02-04T02:42:52;7.60;;;5.20;;
32872;SDS011;19224;52.462;16.898;2023-02-04T02:45:29;5.57;;;4.30;;
32872;SDS011;19224;52.462;16.898;2023-02-04T02:48:00;7.33;;;4.67;;
32872;SDS011;19224;52.462;16.898;2023-02-04T02:50:31;6.73;;;4.43;;
32872;SDS011;19224;52.462;16.898;2023-02-04T02:55:52;9.43;;;4.90;;
32872;SDS011;19224;52.462;16.898;2023-02-04T03:00:59;6.20;;;4.20;;
32872;SDS011;19224;52.462;16.898;2023-02-04T03:03:34;8.53;;;4.57;;
32872;SDS011;19224;52.462;16.898;2023-02-04T03:06:08;10.03;;;4.43;;
32872;SDS011;19224;52.462;16.898;2023-02-04T03:08:47;6.77;;;4.47;;
32872;SDS011;19224;52.462;16.898;2023-02-04T03:11:21;6.63;;;4.17;;
32872;SDS011;19224;52.462;16.898;2023-02-04T03:13:54;6.50;;;4.20;;
32872;SDS011;19224;52.462;16.898;2023-02-04T03:16:29;6.63;;;3.90;;
32872;SDS011;19224;52.462;16.898;2023-02-04T03:19:03;6.73;;;3.97;;
32872;SDS011;19224;52.462;16.898;2023-02-04T03:21:35;7.67;;;4.40;;
32872;SDS011;19224;52.462;16.898;2023-02-04T03:24:05;7.87;;;4.20;;
32872;SDS011;19224;52.462;16.898;2023-02-04T03:26:45;8.33;;;4.10;;
32872;SDS011;19224;52.462;16.898;2023-02-04T03:29:11;5.37;;;3.50;;
32872;SDS011;19224;52.462;16.898;2023-02-04T03:31:41;5.90;;;3.87;;
32872;SDS011;19224;52.462;16.898;2023-02-04T03:34:11;5.00;;;3.77;;
32872;SDS011;19224;52.462;16.898;2023-02-04T03:36:42;6.47;;;4.17;;
32872;SDS011;19224;52.462;16.898;2023-02-04T03:39:12;7.40;;;3.77;;
32872;SDS011;19224;52.462;16.898;2023-02-04T03:41:43;7.33;;;3.83;;
32872;SDS011;19224;52.462;16.898;2023-02-04T03:44:13;7.87;;;3.87;;
32872;SDS011;19224;52.462;16.898;2023-02-04T03:46:45;5.73;;;3.27;;
32872;SDS011;19224;52.462;16.898;2023-02-04T03:49:15;10.40;;;3.80;;
32872;SDS011;19224;52.462;16.898;2023-02-04T03:51:46;5.87;;;3.40;;
32872;SDS011;19224;52.462;16.898;2023-02-04T03:54:16;5.27;;;3.40;;
32872;SDS011;19224;52.462;16.898;2023-02-04T03:56:47;6.70;;;3.87;;
32872;SDS011;19224;52.462;16.898;2023-02-04T03:59:17;5.83;;;3.27;;
32872;SDS011;19224;52.462;16.898;2023-02-04T04:01:47;5.70;;;3.50;;
32872;SDS011;19224;52.462;16.898;2023-02-04T04:04:19;7.10;;;3.20;;
32872;SDS011;19224;52.462;16.898;2023-02-04T04:06:49;5.40;;;3.03;;
32872;SDS011;19224;52.462;16.898;2023-02-04T04:09:20;6.97;;;3.03;;
32872;SDS011;19224;52.462;16.898;2023-02-04T04:11:50;6.50;;;3.33;;
32872;SDS011;19224;52.462;16.898;2023-02-04T04:14:20;4.33;;;2.90;;
32872;SDS011;19224;52.462;16.898;2023-02-04T04:16:51;5.27;;;3.10;;
32872;SDS011;19224;52.462;16.898;2023-02-04T04:19:21;6.97;;;3.17;;
32872;SDS011;19224;52.462;16.898;2023-02-04T04:21:51;7.90;;;3.10;;
32872;SDS011;19224;52.462;16.898;2023-02-04T04:24:22;8.50;;;5.17;;
32872;SDS011;19224;52.462;16.898;2023-02-04T04:26:52;8.87;;;3.43;;
32872;SDS011;19224;52.462;16.898;2023-02-04T04:29:22;6.03;;;2.80;;
32872;SDS011;19224;52.462;16.898;2023-02-04T04:31:58;4.97;;;3.00;;
32872;SDS011;19224;52.462;16.898;2023-02-04T04:34:27;5.50;;;3.10;;
32872;SDS011;19224;52.462;16.898;2023-02-04T04:36:58;6.33;;;3.20;;
32872;SDS011;19224;52.462;16.898;2023-02-04T04:39:28;5.63;;;2.80;;
32872;SDS011;19224;52.462;16.898;2023-02-04T04:41:58;4.73;;;2.60;;
32872;SDS011;19224;52.462;16.898;2023-02-04T04:44:29;4.33;;;2.80;;
32872;SDS011;19224;52.462;16.898;2023-02-04T04:47:00;3.63;;;2.57;;
32872;SDS011;19224;52.462;16.898;2023-02-04T04:49:30;6.33;;;3.00;;
32872;SDS011;19224;52.462;16.898;2023-02-04T04:52:00;5.23;;;3.10;;
32872;SDS011;19224;52.462;16.898;2023-02-04T04:54:32;4.90;;;2.90;;
32872;SDS011;19224;52.462;16.898;2023-02-04T04:57:03;4.20;;;2.40;;
32872;SDS011;19224;52.462;16.898;2023-02-04T04:59:33;3.67;;;2.40;;
32872;SDS011;19224;52.462;16.898;2023-02-04T05:02:03;3.83;;;2.80;;
32872;SDS011;19224;52.462;16.898;2023-02-04T05:04:34;4.77;;;3.00;;
32872;SDS011;19224;52.462;16.898;2023-02-04T05:07:04;5.20;;;2.50;;
32872;SDS011;19224;52.462;16.898;2023-02-04T05:09:34;6.70;;;2.97;;
32872;SDS011;19224;52.462;16.898;2023-02-04T05:12:05;7.00;;;2.93;;
32872;SDS011;19224;52.462;16.898;2023-02-04T05:14:35;5.93;;;2.40;;
32872;SDS011;19224;52.462;16.898;2023-02-04T05:17:05;4.57;;;2.40;;
32872;SDS011;19224;52.462;16.898;2023-02-04T05:19:36;4.13;;;2.50;;
32872;SDS011;19224;52.462;16.898;2023-02-04T05:22:08;4.13;;;2.87;;
32872;SDS011;19224;52.462;16.898;2023-02-04T05:24:38;4.13;;;2.53;;
32872;SDS011;19224;52.462;16.898;2023-02-04T05:27:08;4.17;;;2.73;;
32872;SDS011;19224;52.462;16.898;2023-02-04T05:29:39;8.07;;;2.57;;
32872;SDS011;19224;52.462;16.898;2023-02-04T05:32:09;4.30;;;2.33;;
32872;SDS011;19224;52.462;16.898;2023-02-04T05:34:39;5.57;;;2.67;;
32872;SDS011;19224;52.462;16.898;2023-02-04T05:37:10;4.70;;;2.60;;
32872;SDS011;19224;52.462;16.898;2023-02-04T05:39:42;4.27;;;2.57;;
32872;SDS011;19224;52.462;16.898;2023-02-04T05:42:12;5.20;;;2.67;;
32872;SDS011;19224;52.462;16.898;2023-02-04T05:44:42;3.53;;;2.40;;
32872;SDS011;19224;52.462;16.898;2023-02-04T05:47:16;4.03;;;2.40;;
32872;SDS011;19224;52.462;16.898;2023-02-04T05:49:47;4.00;;;2.70;;
32872;SDS011;19224;52.462;16.898;2023-02-04T05:52:17;8.40;;;4.07;;
32872;SDS011;19224;52.462;16.898;2023-02-04T05:54:47;13.63;;;6.77;;
32872;SDS011;19224;52.462;16.898;2023-02-04T05:57:18;12.10;;;6.37;;
32872;SDS011;19224;52.462;16.898;2023-02-04T05:59:48;15.03;;;7.67;;
32872;SDS011;19224;52.462;16.898;2023-02-04T06:02:18;10.20;;;6.00;;
32872;SDS011;19224;52.462;16.898;2023-02-04T06:04:49;8.87;;;5.27;;
32872;SDS011;19224;52.462;16.898;2023-02-04T06:07:19;10.30;;;5.73;;
32872;SDS011;19224;52.462;16.898;2023-02-04T06:09:50;9.30;;;5.17;;
32872;SDS011;19224;52.462;16.898;2023-02-04T06:12:21;11.67;;;5.93;;
32872;SDS011;19224;52.462;16.898;2023-02-04T06:14:52;14.57;;;4.57;;
32872;SDS011;19224;52.462;16.898;2023-02-04T06:17:22;6.97;;;3.30;;
32872;SDS011;19224;52.462;16.898;2023-02-04T06:19:53;8.87;;;3.93;;
32872;SDS011;19224;52.462;16.898;2023-02-04T06:22:23;11.07;;;5.77;;
32872;SDS011;19224;52.462;16.898;2023-02-04T06:24:54;7.07;;;4.33;;
32872;SDS011;19224;52.462;16.898;2023-02-04T06:27:24;6.43;;;3.53;;
32872;SDS011;19224;52.462;16.898;2023-02-04T06:29:54;6.20;;;2.63;;
32872;SDS011;19224;52.462;16.898;2023-02-04T06:32:25;4.93;;;2.10;;
32872;SDS011;19224;52.462;16.898;2023-02-04T06:34:55;4.97;;;2.23;;
32872;SDS011;19224;52.462;16.898;2023-02-04T06:37:25;3.37;;;2.00;;
32872;SDS011;19224;52.462;16.898;2023-02-04T06:39:57;4.40;;;2.13;;
32872;SDS011;19224;52.462;16.898;2023-02-04T06:42:27;3.43;;;1.90;;
32872;SDS011;19224;52.462;16.898;2023-02-04T06:44:58;3.00;;;1.60;;
32872;SDS011;19224;52.462;16.898;2023-02-04T06:47:28;3.77;;;2.17;;
32872;SDS011;19224;52.462;16.898;2023-02-04T06:49:59;4.77;;;1.70;;
32872;SDS011;19224;52.462;16.898;2023-02-04T06:52:29;4.40;;;2.03;;
32872;SDS011;19224;52.462;16.898;2023-02-04T06:54:59;3.33;;;1.97;;
32872;SDS011;19224;52.462;16.898;2023-02-04T06:57:30;3.10;;;2.03;;
32872;SDS011;19224;52.462;16.898;2023-02-04T07:00:03;5.40;;;2.00;;
32872;SDS011;19224;52.462;16.898;2023-02-04T07:02:36;3.83;;;2.30;;
32872;SDS011;19224;52.462;16.898;2023-02-04T07:05:09;2.13;;;1.47;;
32872;SDS011;19224;52.462;16.898;2023-02-04T07:07:40;3.00;;;1.73;;
32872;SDS011;19224;52.462;16.898;2023-02-04T07:10:11;3.53;;;1.80;;
32872;SDS011;19224;52.462;16.898;2023-02-04T07:12:43;3.37;;;1.57;;
32872;SDS011;19224;52.462;16.898;2023-02-04T07:15:14;2.73;;;1.43;;
32872;SDS011;19224;52.462;16.898;2023-02-04T07:17:45;3.63;;;2.33;;
32872;SDS011;19224;52.462;16.898;2023-02-04T07:20:15;2.93;;;1.40;;
32872;SDS011;19224;52.462;16.898;2023-02-04T07:22:48;2.70;;;1.60;;
32872;SDS011;19224;52.462;16.898;2023-02-04T07:25:18;4.80;;;1.80;;
32872;SDS011;19224;52.462;16.898;2023-02-04T07:27:48;2.63;;;1.20;;
32872;SDS011;19224;52.462;16.898;2023-02-04T07:30:19;2.40;;;1.50;;
32872;SDS011;19224;52.462;16.898;2023-02-04T07:32:49;2.90;;;1.30;;
32872;SDS011;19224;52.462;16.898;2023-02-04T07:35:20;4.83;;;2.40;;
32872;SDS011;19224;52.462;16.898;2023-02-04T07:37:50;6.63;;;2.80;;
32872;SDS011;19224;52.462;16.898;2023-02-04T07:40:23;8.03;;;3.03;;
32872;SDS011;19224;52.462;16.898;2023-02-04T07:42:53;6.17;;;2.40;;
32872;SDS011;19224;52.462;16.898;2023-02-04T07:45:24;6.57;;;2.77;;
32872;SDS011;19224;52.462;16.898;2023-02-04T07:47:55;6.07;;;2.50;;
32872;SDS011;19224;52.462;16.898;2023-02-04T07:50:25;4.27;;;1.87;;
32872;SDS011;19224;52.462;16.898;2023-02-04T07:52:56;5.30;;;3.37;;
32872;SDS011;19224;52.462;16.898;2023-02-04T07:55:28;7.27;;;4.43;;
32872;SDS011;19224;52.462;16.898;2023-02-04T07:57:58;5.73;;;3.13;;
32872;SDS011;19224;52.462;16.898;2023-02-04T08:00:33;3.93;;;2.53;;
32872;SDS011;19224;52.462;16.898;2023-02-04T08:03:05;5.93;;;2.20;;
32872;SDS011;19224;52.462;16.898;2023-02-04T08:05:35;4.40;;;1.87;;
32872;SDS011;19224;52.462;16.898;2023-02-04T08:08:05;2.63;;;1.43;;
32872;SDS011;19224;52.462;16.898;2023-02-04T08:10:36;3.03;;;2.10;;
32872;SDS011;19224;52.462;16.898;2023-02-04T08:13:06;2.43;;;1.30;;
32872;SDS011;19224;52.462;16.898;2023-02-04T08:15:37;6.13;;;2.20;;
32872;SDS011;19224;52.462;16.898;2023-02-04T08:18:17;4.50;;;1.90;;
32872;SDS011;19224;52.462;16.898;2023-02-04T08:20:45;5.27;;;2.07;;
32872;SDS011;19224;52.462;16.898;2023-02-04T08:23:18;5.33;;;2.50;;
32872;SDS011;19224;52.462;16.898;2023-02-04T08:25:49;6.53;;;2.50;;
32872;SDS011;19224;52.462;16.898;2023-02-04T08:28:22;7.10;;;2.53;;
32872;SDS011;19224;52.462;16.898;2023-02-04T08:30:53;5.30;;;2.23;;
32872;SDS011;19224;52.462;16.898;2023-02-04T08:33:25;4.67;;;2.50;;
32872;SDS011;19224;52.462;16.898;2023-02-04T08:35:57;6.83;;;2.47;;
32872;SDS011;19224;52.462;16.898;2023-02-04T08:38:32;7.53;;;2.90;;
32872;SDS011;19224;52.462;16.898;2023-02-04T08:41:02;7.97;;;2.77;;
32872;SDS011;19224;52.462;16.898;2023-02-04T08:43:40;4.83;;;2.83;;
32872;SDS011;19224;52.462;16.898;2023-02-04T08:46:10;4.67;;;2.33;;
32872;SDS011;19224;52.462;16.898;2023-02-04T08:48:46;4.57;;;2.47;;
32872;SDS011;19224;52.462;16.898;2023-02-04T08:51:14;4.23;;;2.10;;
32872;SDS011;19224;52.462;16.898;2023-02-04T08:53:53;6.63;;;2.30;;
32872;SDS011;19224;52.462;16.898;2023-02-04T08:56:26;3.30;;;1.70;;
32872;SDS011;19224;52.462;16.898;2023-02-04T08:59:04;3.93;;;1.80;;
32872;SDS011;19224;52.462;16.898;2023-02-04T09:01:29;3.47;;;2.03;;
32872;SDS011;19224;52.462;16.898;2023-02-04T09:04:07;5.23;;;2.00;;
32872;SDS011;19224;52.462;16.898;2023-02-04T09:06:36;3.50;;;1.70;;
32872;SDS011;19224;52.462;16.898;2023-02-04T09:09:06;4.13;;;1.70;;
32872;SDS011;19224;52.462;16.898;2023-02-04T09:11:37;2.87;;;1.50;;
32872;SDS011;19224;52.462;16.898;2023-02-04T09:14:09;2.13;;;1.30;;
32872;SDS011;19224;52.462;16.898;2023-02-04T09:16:42;2.77;;;1.60;;
32872;SDS011;19224;52.462;16.898;2023-02-04T09:19:19;3.43;;;1.47;;
32872;SDS011;19224;52.462;16.898;2023-02-04T09:21:52;1.60;;;1.00;;
32872;SDS011;19224;52.462;16.898;2023-02-04T09:24:23;2.53;;;1.20;;
32872;SDS011;19224;52.462;16.898;2023-02-04T09:26:56;2.60;;;1.30;;
32872;SDS011;19224;52.462;16.898;2023-02-04T09:29:27;2.90;;;1.20;;
32872;SDS011;19224;52.462;16.898;2023-02-04T09:31:57;1.93;;;1.40;;
32872;SDS011;19224;52.462;16.898;2023-02-04T09:34:29;1.97;;;1.30;;
32872;SDS011;19224;52.462;16.898;2023-02-04T09:37:02;1.87;;;1.10;;
32872;SDS011;19224;52.462;16.898;2023-02-04T09:39:35;3.03;;;1.20;;
32872;SDS011;19224;52.462;16.898;2023-02-04T09:42:04;2.93;;;1.57;;
32872;SDS011;19224;52.462;16.898;2023-02-04T09:44:37;3.00;;;1.30;;
32872;SDS011;19224;52.462;16.898;2023-02-04T09:47:08;3.53;;;1.80;;
32872;SDS011;19224;52.462;16.898;2023-02-04T09:49:42;5.60;;;1.40;;
32872;SDS011;19224;52.462;16.898;2023-02-04T09:52:14;3.77;;;1.40;;
32872;SDS011;19224;52.462;16.898;2023-02-04T09:54:46;2.07;;;1.10;;
32872;SDS011;19224;52.462;16.898;2023-02-04T09:57:17;1.45;;;1.02;;
32872;SDS011;19224;52.462;16.898;2023-02-04T09:59:48;1.80;;;1.10;;
32872;SDS011;19224;52.462;16.898;2023-02-04T10:02:22;1.93;;;1.13;;
32872;SDS011;19224;52.462;16.898;2023-02-04T10:04:56;4.17;;;1.63;;
32872;SDS011;19224;52.462;16.898;2023-02-04T10:07:31;2.80;;;1.60;;
32872;SDS011;19224;52.462;16.898;2023-02-04T10:10:02;0.93;;;0.80;;
32872;SDS011;19224;52.462;16.898;2023-02-04T10:12:37;2.03;;;1.20;;
32872;SDS011;19224;52.462;16.898;2023-02-04T10:15:11;2.80;;;1.37;;
32872;SDS011;19224;52.462;16.898;2023-02-04T10:17:50;1.60;;;0.80;;
32872;SDS011;19224;52.462;16.898;2023-02-04T10:20:26;1.27;;;0.90;;
32872;SDS011;19224;52.462;16.898;2023-02-04T10:22:59;2.43;;;1.10;;
32872;SDS011;19224;52.462;16.898;2023-02-04T10:25:31;2.37;;;1.40;;
32872;SDS011;19224;52.462;16.898;2023-02-04T10:28:01;2.83;;;1.27;;
32872;SDS011;19224;52.462;16.898;2023-02-04T10:30:39;2.53;;;1.33;;
32872;SDS011;19224;52.462;16.898;2023-02-04T10:33:22;3.33;;;1.30;;
32872;SDS011;19224;52.462;16.898;2023-02-04T10:35:46;2.83;;;1.50;;
32872;SDS011;19224;52.462;16.898;2023-02-04T10:38:25;3.80;;;1.40;;
32872;SDS011;19224;52.462;16.898;2023-02-04T10:41:11;4.77;;;1.10;;
32872;SDS011;19224;52.462;16.898;2023-02-04T10:43:33;2.30;;;1.30;;
32872;SDS011;19224;52.462;16.898;2023-02-04T10:46:04;1.93;;;1.10;;
32872;SDS011;19224;52.462;16.898;2023-02-04T10:48:40;3.37;;;1.87;;
32872;SDS011;19224;52.462;16.898;2023-02-04T10:51:11;3.67;;;1.40;;
32872;SDS011;19224;52.462;16.898;2023-02-04T10:53:43;2.10;;;1.30;;
32872;SDS011;19224;52.462;16.898;2023-02-04T10:56:31;3.60;;;1.50;;
32872;SDS011;19224;52.462;16.898;2023-02-04T10:59:01;1.63;;;1.10;;
32872;SDS011;19224;52.462;16.898;2023-02-04T11:01:32;1.87;;;1.27;;
32872;SDS011;19224;52.462;16.898;2023-02-04T11:04:07;2.02;;;1.10;;
32872;SDS011;19224;52.462;16.898;2023-02-04T11:06:39;4.07;;;2.03;;
32872;SDS011;19224;52.462;16.898;2023-02-04T11:09:17;2.65;;;1.25;;
32872;SDS011;19224;52.462;16.898;2023-02-04T11:11:48;4.17;;;1.80;;
32872;SDS011;19224;52.462;16.898;2023-02-04T11:14:23;6.83;;;3.10;;
32872;SDS011;19224;52.462;16.898;2023-02-04T11:17:00;4.08;;;2.10;;
32872;SDS011;19224;52.462;16.898;2023-02-04T11:19:36;2.13;;;1.10;;
32872;SDS011;19224;52.462;16.898;2023-02-04T11:22:19;2.07;;;1.13;;
32872;SDS011;19224;52.462;16.898;2023-02-04T11:24:58;2.77;;;1.00;;
32872;SDS011;19224;52.462;16.898;2023-02-04T11:27:47;2.33;;;1.27;;
32872;SDS011;19224;52.462;16.898;2023-02-04T11:30:22;2.97;;;1.50;;
32872;SDS011;19224;52.462;16.898;2023-02-04T11:33:05;4.20;;;1.30;;
32872;SDS011;19224;52.462;16.898;2023-02-04T11:36:02;2.37;;;1.13;;
32872;SDS011;19224;52.462;16.898;2023-02-04T11:38:45;3.02;;;1.40;;
32872;SDS011;19224;52.462;16.898;2023-02-04T11:41:27;2.20;;;1.33;;
32872;SDS011;19224;52.462;16.898;2023-02-04T11:44:00;2.47;;;1.33;;
32872;SDS011;19224;52.462;16.898;2023-02-04T11:46:30;1.72;;;1.17;;
32872;SDS011;19224;52.462;16.898;2023-02-04T11:49:08;1.55;;;0.80;;
32872;SDS011;19224;52.462;16.898;2023-02-04T11:51:48;1.97;;;1.00;;
32872;SDS011;19224;52.462;16.898;2023-02-04T11:54:25;1.80;;;1.07;;
32872;SDS011;19224;52.462;16.898;2023-02-04T11:56:59;1.42;;;1.00;;
32872;SDS011;19224;52.462;16.898;2023-02-04T11:59:34;2.80;;;1.22;;
32872;SDS011;19224;52.462;16.898;2023-02-04T12:02:21;2.00;;;1.23;;
32872;SDS011;19224;52.462;16.898;2023-02-04T12:04:54;5.60;;;2.00;;
32872;SDS011;19224;52.462;16.898;2023-02-04T12:07:28;2.80;;;1.50;;
32872;SDS011;19224;52.462;16.898;2023-02-04T12:12:53;3.25;;;1.30;;
32872;SDS011;19224;52.462;16.898;2023-02-04T12:18:14;5.60;;;2.43;;
32872;SDS011;19224;52.462;16.898;2023-02-04T12:20:45;3.53;;;1.53;;
32872;SDS011;19224;52.462;16.898;2023-02-04T12:23:17;4.50;;;2.17;;
32872;SDS011;19224;52.462;16.898;2023-02-04T12:25:52;11.75;;;4.67;;
32872;SDS011;19224;52.462;16.898;2023-02-04T12:28:24;7.72;;;4.12;;
32872;SDS011;19224;52.462;16.898;2023-02-04T12:31:01;7.20;;;3.70;;
32872;SDS011;19224;52.462;16.898;2023-02-04T12:33:36;7.25;;;3.27;;
32872;SDS011;19224;52.462;16.898;2023-02-04T12:36:06;7.40;;;2.92;;
32872;SDS011;19224;52.462;16.898;2023-02-04T12:38:39;9.03;;;3.25;;
32872;SDS011;19224;52.462;16.898;2023-02-04T12:41:09;11.40;;;3.23;;
32872;SDS011;19224;52.462;16.898;2023-02-04T12:43:39;4.05;;;2.42;;
32872;SDS011;19224;52.462;16.898;2023-02-04T12:46:23;5.15;;;2.75;;
32872;SDS011;19224;52.462;16.898;2023-02-04T12:48:54;4.83;;;2.10;;
32872;SDS011;19224;52.462;16.898;2023-02-04T12:51:26;3.03;;;1.67;;
32872;SDS011;19224;52.462;16.898;2023-02-04T12:54:01;4.45;;;1.80;;
32872;SDS011;19224;52.462;16.898;2023-02-04T12:56:37;4.65;;;1.95;;
32872;SDS011;19224;52.462;16.898;2023-02-04T12:59:07;4.12;;;1.62;;
32872;SDS011;19224;52.462;16.898;2023-02-04T13:01:39;3.75;;;1.85;;
32872;SDS011;19224;52.462;16.898;2023-02-04T13:04:09;3.10;;;1.60;;
32872;SDS011;19224;52.462;16.898;2023-02-04T13:06:43;4.30;;;1.77;;
32872;SDS011;19224;52.462;16.898;2023-02-04T13:09:13;2.55;;;1.67;;
32872;SDS011;19224;52.462;16.898;2023-02-04T13:11:44;4.72;;;1.80;;
32872;SDS011;19224;52.462;16.898;2023-02-04T13:14:14;4.75;;;1.75;;
32872;SDS011;19224;52.462;16.898;2023-02-04T13:16:44;4.57;;;1.83;;
32872;SDS011;19224;52.462;16.898;2023-02-04T13:19:15;3.25;;;1.50;;
32872;SDS011;19224;52.462;16.898;2023-02-04T13:21:48;5.10;;;2.12;;
32872;SDS011;19224;52.462;16.898;2023-02-04T13:24:18;4.47;;;1.67;;
32872;SDS011;19224;52.462;16.898;2023-02-04T13:26:49;3.90;;;2.10;;
32872;SDS011;19224;52.462;16.898;2023-02-04T13:29:19;4.97;;;1.67;;
32872;SDS011;19224;52.462;16.898;2023-02-04T13:31:50;3.98;;;2.30;;
32872;SDS011;19224;52.462;16.898;2023-02-04T13:34:22;3.12;;;1.55;;
32872;SDS011;19224;52.462;16.898;2023-02-04T13:36:52;2.83;;;1.55;;
32872;SDS011;19224;52.462;16.898;2023-02-04T13:39:23;4.80;;;2.00;;
32872;SDS011;19224;52.462;16.898;2023-02-04T13:41:56;2.65;;;1.77;;
32872;SDS011;19224;52.462;16.898;2023-02-04T13:44:30;5.30;;;2.25;;
32872;SDS011;19224;52.462;16.898;2023-02-04T13:47:00;5.83;;;2.40;;
32872;SDS011;19224;52.462;16.898;2023-02-04T13:49:31;3.98;;;2.10;;
32872;SDS011;19224;52.462;16.898;2023-02-04T13:52:01;5.12;;;1.75;;
32872;SDS011;19224;52.462;16.898;2023-02-04T13:54:33;4.42;;;2.15;;
32872;SDS011;19224;52.462;16.898;2023-02-04T13:57:08;4.53;;;2.23;;
32872;SDS011;19224;52.462;16.898;2023-02-04T13:59:44;6.22;;;2.33;;
32872;SDS011;19224;52.462;16.898;2023-02-04T14:02:14;3.77;;;1.93;;
32872;SDS011;19224;52.462;16.898;2023-02-04T14:04:45;6.47;;;2.37;;
32872;SDS011;19224;52.462;16.898;2023-02-04T14:07:15;5.97;;;2.40;;
32872;SDS011;19224;52.462;16.898;2023-02-04T14:09:51;2.65;;;1.60;;
32872;SDS011;19224;52.462;16.898;2023-02-04T14:12:24;4.67;;;2.10;;
32872;SDS011;19224;52.462;16.898;2023-02-04T14:14:56;3.07;;;1.70;;
32872;SDS011;19224;52.462;16.898;2023-02-04T14:17:26;4.85;;;2.02;;
32872;SDS011;19224;52.462;16.898;2023-02-04T14:19:58;6.73;;;2.23;;
32872;SDS011;19224;52.462;16.898;2023-02-04T14:22:30;4.28;;;2.17;;
32872;SDS011;19224;52.462;16.898;2023-02-04T14:25:02;4.00;;;1.93;;
32872;SDS011;19224;52.462;16.898;2023-02-04T14:27:38;6.00;;;2.17;;
32872;SDS011;19224;52.462;16.898;2023-02-04T14:30:15;8.47;;;2.47;;
32872;SDS011;19224;52.462;16.898;2023-02-04T14:32:50;4.58;;;2.20;;
32872;SDS011;19224;52.462;16.898;2023-02-04T14:35:21;3.25;;;1.67;;
32872;SDS011;19224;52.462;16.898;2023-02-04T14:37:54;3.25;;;1.55;;
32872;SDS011;19224;52.462;16.898;2023-02-04T14:40:28;2.95;;;1.50;;
32872;SDS011;19224;52.462;16.898;2023-02-04T14:42:58;3.30;;;1.70;;
32872;SDS011;19224;52.462;16.898;2023-02-04T14:45:28;2.27;;;1.27;;
32872;SDS011;19224;52.462;16.898;2023-02-04T14:48:00;3.07;;;1.47;;
32872;SDS011;19224;52.462;16.898;2023-02-04T14:50:33;3.53;;;1.50;;
32872;SDS011;19224;52.462;16.898;2023-02-04T14:53:05;2.77;;;1.40;;
32872;SDS011;19224;52.462;16.898;2023-02-04T14:55:36;5.77;;;2.20;;
32872;SDS011;19224;52.462;16.898;2023-02-04T14:58:12;4.03;;;1.90;;
32872;SDS011;19224;52.462;16.898;2023-02-04T15:00:39;4.00;;;2.03;;
32872;SDS011;19224;52.462;16.898;2023-02-04T15:03:18;4.93;;;2.20;;
32872;SDS011;19224;52.462;16.898;2023-02-04T15:05:50;5.23;;;2.50;;
32872;SDS011;19224;52.462;16.898;2023-02-04T15:08:22;5.30;;;2.53;;
32872;SDS011;19224;52.462;16.898;2023-02-04T15:10:54;4.43;;;2.27;;
32872;SDS011;19224;52.462;16.898;2023-02-04T15:13:24;3.92;;;2.12;;
32872;SDS011;19224;52.462;16.898;2023-02-04T15:15:56;2.70;;;1.63;;
32872;SDS011;19224;52.462;16.898;2023-02-04T15:18:32;3.63;;;2.00;;